Time;durP1;ratioP1;P1;durP2;ratioP2;P2;SDS_P1;SDS_P2;PMS_P1;PMS_P2;Temp;Humidity;BMP_temperature;BMP_pressure;BME280_temperature;BME280_humidity;BME280_pressure;Samples;Min_cycle;Max_cycle;Signal;HPM_P1;HPM_P2
2022/07/29 00:04:04;;;;;;;4.63;1.10;;;;;;;17.99;48.47;100553.03;10169701;29;20080;-79
2022/07/29 00:09:07;;;;;;;5.88;1.58;;;;;;;18.10;48.74;100556.28;10173315;29;20051;-78
2022/07/29 00:14:12;;;;;;;6.47;1.38;;;;;;;17.95;48.39;100540.78;10182103;29;20052;-78
2022/07/29 00:19:15;;;;;;;3.92;1.17;;;;;;;17.97;48.85;100531.47;10171677;29;20107;-77
2022/07/29 00:24:18;;;;;;;2.15;1.20;;;;;;;18.00;49.01;100516.72;10165311;29;20037;-78
2022/07/29 00:29:23;;;;;;;8.88;2.13;;;;;;;18.12;49.56;100516.19;10184470;29;20056;-78
2022/07/29 00:39:57;;;;;;;4.10;1.45;;;;;;;18.27;48.51;100505.47;10166196;29;20047;-78
2022/07/29 00:45:01;;;;;;;1.65;1.40;;;;;;;18.15;48.20;100490.53;10172375;29;20150;-77
2022/07/29 00:50:06;;;;;;;5.35;1.30;;;;;;;18.19;48.48;100502.75;10168620;29;20063;-77
2022/07/29 00:55:11;;;;;;;2.20;1.10;;;;;;;18.25;49.08;100490.34;10173845;29;20047;-77
2022/07/29 01:00:18;;;;;;;3.17;1.33;;;;;;;18.16;48.16;100492.25;10166378;29;20435;-78
2022/07/29 01:05:23;;;;;;;4.28;1.20;;;;;;;18.16;48.50;100491.41;10173563;29;20979;-76
2022/07/29 01:10:47;;;;;;;3.38;1.30;;;;;;;18.19;48.80;100475.56;10163061;29;21184;-74
2022/07/29 01:15:57;;;;;;;7.68;1.27;;;;;;;18.18;48.63;100481.19;10155779;29;20063;-79
2022/07/29 01:21:17;;;;;;;5.95;1.88;;;;;;;17.53;48.84;100485.56;10165105;29;20122;-78
2022/07/29 01:26:49;;;;;;;2.60;1.45;;;;;;;16.60;51.43;100490.97;10162617;29;20052;-77
2022/07/29 01:31:58;;;;;;;3.83;1.33;;;;;;;16.78;51.47;100472.75;10164135;29;20080;-78
2022/07/29 01:37:09;;;;;;;2.60;1.40;;;;;;;16.98;51.48;100473.34;10164428;29;20088;-78
2022/07/29 01:42:21;;;;;;;5.10;1.35;;;;;;;17.32;50.96;100461.59;10171514;29;20091;-76
2022/07/29 01:47:30;;;;;;;3.42;1.40;;;;;;;17.49;51.24;100467.88;10164082;29;20060;-78
2022/07/29 01:52:38;;;;;;;3.20;1.17;;;;;;;17.59;51.58;100449.56;10171883;29;20147;-78
2022/07/29 01:57:44;;;;;;;5.25;1.30;;;;;;;17.66;51.29;100444.31;10168179;29;20063;-79
2022/07/29 02:02:50;;;;;;;8.23;1.70;;;;;;;17.65;51.20;100442.63;10162997;29;20060;-78
2022/07/29 02:07:55;;;;;;;4.63;1.42;;;;;;;17.65;50.90;100438.03;10163731;29;20076;-79
2022/07/29 02:13:00;;;;;;;1.85;1.15;;;;;;;17.74;50.61;100432.59;10161617;29;20063;-77
2022/07/29 02:18:09;;;;;;;5.07;1.58;;;;;;;17.78;51.59;100417.66;10158508;29;20052;-78
2022/07/29 02:23:13;;;;;;;5.18;1.60;;;;;;;17.69;52.05;100412.25;10163165;29;20055;-78
2022/07/29 02:28:18;;;;;;;4.72;1.33;;;;;;;17.67;51.36;100416.16;10163441;29;20055;-79
2022/07/29 02:33:24;;;;;;;2.45;1.30;;;;;;;17.59;52.02;100416.97;10163305;29;20398;-77
2022/07/29 02:43:54;;;;;;;2.85;1.02;;;;;;;16.86;53.00;100433.09;10162150;29;20062;-78
2022/07/29 02:49:05;;;;;;;5.05;1.50;;;;;;;16.08;55.36;100437.59;10158503;29;20062;-77
2022/07/29 02:54:11;;;;;;;2.55;1.23;;;;;;;16.61;55.35;100418.59;10161922;29;20617;-78
2022/07/29 02:59:17;;;;;;;2.58;1.25;;;;;;;16.79;55.64;100406.63;10162346;29;21250;-77
2022/07/29 03:04:25;;;;;;;5.13;1.58;;;;;;;16.85;54.35;100415.13;10152329;29;20050;-78
2022/07/29 03:09:30;;;;;;;1.83;1.33;;;;;;;16.41;53.18;100418.00;10167608;29;20050;-77
2022/07/29 03:14:33;;;;;;;4.15;1.20;;;;;;;16.57;53.72;100407.22;10160594;29;20071;-76
2022/07/29 03:19:39;;;;;;;3.05;1.40;;;;;;;16.67;53.73;100431.50;10169127;29;20063;-78
2022/07/29 03:24:42;;;;;;;3.15;1.67;;;;;;;16.33;53.78;100425.06;10174783;29;20040;-78
2022/07/29 03:29:45;;;;;;;2.15;1.52;;;;;;;16.41;53.74;100426.97;10164973;29;20466;-78
2022/07/29 03:34:53;;;;;;;6.22;1.48;;;;;;;16.19;53.15;100431.06;10166666;29;20051;-78
2022/07/29 03:39:58;;;;;;;4.43;1.55;;;;;;;16.26;53.98;100415.03;10184531;29;20056;-77
2022/07/29 03:45:06;;;;;;;3.80;1.42;;;;;;;16.49;53.95;100421.59;10168086;29;20053;-78
2022/07/29 03:50:15;;;;;;;5.03;1.33;;;;;;;16.17;53.42;100424.09;10174389;29;20047;-76
2022/07/29 03:55:18;;;;;;;3.55;1.40;;;;;;;16.25;52.82;100424.97;10169782;29;20358;-79
2022/07/29 04:00:22;;;;;;;4.35;1.60;;;;;;;16.30;52.91;100432.69;10164408;29;20386;-78
2022/07/29 04:05:27;;;;;;;2.35;1.30;;;;;;;16.45;53.33;100417.50;10167991;29;20044;-77
2022/07/29 04:10:30;;;;;;;3.38;1.23;;;;;;;16.62;53.10;100417.56;10165133;29;20072;-78
2022/07/29 04:15:35;;;;;;;4.70;1.50;;;;;;;16.63;53.48;100420.13;10184339;29;20219;-76
2022/07/29 04:20:40;;;;;;;1.73;1.17;;;;;;;16.46;52.71;100421.94;10178173;29;20055;-76
2022/07/29 04:25:43;;;;;;;3.10;1.50;;;;;;;16.38;53.22;100421.88;10171823;29;20074;-79
2022/07/29 04:30:46;;;;;;;3.53;1.50;;;;;;;16.54;53.25;100429.25;10161910;29;20690;-77
2022/07/29 04:35:50;;;;;;;2.55;1.52;;;;;;;16.68;52.98;100412.38;10164533;29;20406;-79
2022/07/29 04:40:57;;;;;;;5.75;1.88;;;;;;;16.71;53.39;100416.59;10163581;29;20059;-78
2022/07/29 04:46:00;;;;;;;4.90;1.90;;;;;;;16.86;52.70;100423.09;10164244;29;20445;-78
2022/07/29 04:51:04;;;;;;;3.95;1.73;;;;;;;16.93;52.91;100417.88;10159673;29;20433;-78
2022/07/29 04:56:07;;;;;;;4.07;1.65;;;;;;;16.84;52.03;100425.13;10163654;29;20051;-78
2022/07/29 05:01:10;;;;;;;9.25;1.65;;;;;;;16.50;52.55;100423.28;10164957;29;20063;-78
2022/07/29 05:06:14;;;;;;;5.93;1.35;;;;;;;16.54;53.09;100415.69;10167592;29;21152;-77
2022/07/29 05:11:17;;;;;;;4.65;1.83;;;;;;;16.83;53.45;100420.72;10166856;29;20047;-78
2022/07/29 05:16:24;;;;;;;6.60;2.30;;;;;;;17.25;52.42;100417.09;10166223;29;20074;-79
2022/07/29 05:21:29;;;;;;;4.75;1.77;;;;;;;17.55;52.36;100418.34;10173714;29;20083;-77
2022/07/29 05:26:31;;;;;;;2.35;1.15;;;;;;;17.76;52.17;100408.84;10189837;29;20516;-76
2022/07/29 05:31:34;;;;;;;4.05;1.70;;;;;;;18.04;52.08;100421.06;10173554;29;20068;-78
2022/07/29 05:36:39;;;;;;;5.00;1.83;;;;;;;17.59;54.76;100425.13;10149504;29;21803;-80
2022/07/29 05:41:41;;;;;;;4.80;1.23;;;;;;;17.81;54.62;100414.59;10162297;29;20079;-78
2022/07/29 05:46:44;;;;;;;5.78;2.55;;;;;;;18.12;52.97;100421.03;10166731;29;20154;-79
2022/07/29 05:51:49;;;;;;;2.30;1.40;;;;;;;18.50;52.20;100409.56;10165120;29;20056;-79
2022/07/29 05:56:52;;;;;;;7.10;1.60;;;;;;;18.76;52.16;100412.00;10160491;29;20054;-79
2022/07/29 06:01:54;;;;;;;3.47;2.10;;;;;;;18.90;51.59;100413.16;10157303;29;20625;-78
2022/07/29 06:06:59;;;;;;;7.05;1.80;;;;;;;19.01;51.29;100419.03;10170672;29;20075;-77
2022/07/29 06:12:02;;;;;;;3.40;1.50;;;;;;;19.12;50.83;100434.13;10165103;29;20051;-79
2022/07/29 06:17:06;;;;;;;4.47;2.60;;;;;;;19.14;50.68;100423.03;10160883;29;20063;-77
2022/07/29 06:22:16;;;;;;;4.57;1.80;;;;;;;19.40;50.57;100429.00;10175193;29;20048;-78
2022/07/29 06:27:18;;;;;;;3.78;1.75;;;;;;;19.58;48.49;100436.06;10169120;29;20050;-76
2022/07/29 06:32:22;;;;;;;2.95;1.30;;;;;;;19.85;46.72;100431.91;10147145;29;21396;-77
2022/07/29 06:37:30;;;;;;;4.55;1.52;;;;;;;20.34;46.36;100435.03;10162562;29;20040;-78
2022/07/29 06:42:35;;;;;;;6.18;1.65;;;;;;;21.01;45.94;100433.22;10158249;29;20052;-76
2022/07/29 06:47:38;;;;;;;5.45;1.55;;;;;;;21.22;45.65;100427.78;10165735;29;20187;-77
2022/07/29 06:52:42;;;;;;;7.40;1.75;;;;;;;21.24;46.34;100422.16;10164344;29;20564;-77
2022/07/29 06:57:46;;;;;;;4.82;1.50;;;;;;;21.31;45.91;100423.06;10167804;29;20091;-77
2022/07/29 07:02:53;;;;;;;3.92;2.00;;;;;;;21.41;46.58;100429.03;10182977;29;20047;-78
2022/07/29 07:07:57;;;;;;;7.35;2.17;;;;;;;21.54;45.80;100424.75;10183353;29;20866;-78
2022/07/29 07:13:00;;;;;;;6.35;1.70;;;;;;;21.38;45.10;100426.69;10191799;29;20502;-78
2022/07/29 07:18:03;;;;;;;5.78;1.90;;;;;;;21.66;46.08;100429.50;10181827;29;20051;-77
2022/07/29 07:23:07;;;;;;;7.97;1.98;;;;;;;21.77;45.04;100440.97;10178972;29;20490;-78
2022/07/29 07:28:10;;;;;;;5.95;1.60;;;;;;;21.91;45.48;100434.56;10172512;29;20619;-77
2022/07/29 07:33:14;;;;;;;8.88;2.50;;;;;;;22.13;44.90;100440.00;10185753;29;20477;-78
2022/07/29 07:38:19;;;;;;;5.32;1.73;;;;;;;22.16;45.06;100436.88;10171399;29;21420;-75
2022/07/29 07:43:22;;;;;;;6.95;1.65;;;;;;;23.06;43.36;100427.69;10200200;29;20044;-76
2022/07/29 07:48:25;;;;;;;2.33;1.40;;;;;;;23.05;43.35;100433.41;10165877;29;20051;-78
2022/07/29 07:53:30;;;;;;;5.15;1.50;;;;;;;23.50;41.01;100431.00;10166015;29;20122;-78
2022/07/29 07:58:35;;;;;;;7.50;1.60;;;;;;;23.81;39.02;100433.19;10179252;29;20075;-78
2022/07/29 08:03:38;;;;;;;3.30;1.38;;;;;;;23.87;39.26;100440.56;10174603;29;20051;-77
2022/07/29 08:08:42;;;;;;;4.25;1.50;;;;;;;24.14;39.33;100435.91;10168373;29;20924;-79
2022/07/29 08:13:46;;;;;;;5.65;1.63;;;;;;;24.48;37.65;100439.47;10182739;29;20139;-77
2022/07/29 08:18:49;;;;;;;4.95;1.30;;;;;;;25.01;36.70;100436.53;10171646;29;20119;-79
2022/07/29 08:24:42;;;;;;;2.95;1.05;;;;;;;25.05;36.68;100437.81;10171412;29;20055;-77
2022/07/29 08:29:17;;;;;;;4.25;1.10;;;;;;;24.01;37.35;100436.75;10184803;29;20155;-77
2022/07/29 08:34:21;;;;;;;3.63;1.45;;;;;;;23.62;38.70;100441.16;10178071;29;20054;-76
2022/07/29 08:39:31;;;;;;;5.45;1.23;;;;;;;23.61;39.56;100450.44;10175399;29;20092;-77
2022/07/29 08:44:35;;;;;;;3.22;1.30;;;;;;;24.57;38.11;100449.16;10179874;29;21315;-78
2022/07/29 08:49:38;;;;;;;11.18;1.77;;;;;;;25.36;36.16;100441.66;10170922;29;20043;-78
2022/07/29 08:54:44;;;;;;;6.70;1.50;;;;;;;25.66;35.00;100450.19;10174428;29;20146;-77
2022/07/29 08:59:51;;;;;;;8.93;1.42;;;;;;;25.53;35.61;100447.47;10173241;29;21229;-76
2022/07/29 09:04:56;;;;;;;4.63;1.70;;;;;;;25.04;36.00;100444.41;10171013;29;20055;-78
2022/07/29 09:10:00;;;;;;;4.65;2.03;;;;;;;25.44;36.55;100446.06;10166429;29;20050;-78
2022/07/29 09:15:03;;;;;;;7.00;1.60;;;;;;;27.02;35.21;100440.19;10162799;29;20119;-76
2022/07/29 09:25:40;;;;;;;5.35;1.42;;;;;;;24.91;34.41;100431.53;10266759;23;19961;-75
2022/07/29 09:30:51;;;;;;;5.93;2.13;;;;;;;24.15;36.19;100431.28;10212548;29;20064;-75
2022/07/29 09:35:57;;;;;;;6.70;1.60;;;;;;;24.85;34.72;100420.53;10251341;23;20040;-77
2022/07/29 09:41:02;;;;;;;5.75;1.42;;;;;;;25.25;33.54;100420.38;10205914;29;20082;-80
2022/07/29 09:46:12;;;;;;;3.60;1.55;;;;;;;25.89;33.59;100418.47;10224869;29;20055;-80
2022/07/29 09:51:19;;;;;;;4.63;1.92;;;;;;;26.85;32.84;100417.94;10225163;29;20048;-80
2022/07/29 09:56:41;;;;;;;8.73;2.17;;;;;;;27.55;30.62;100408.28;10220343;29;20063;-80
2022/07/29 10:01:44;;;;;;;7.05;2.45;;;;;;;27.70;30.81;100400.41;10218680;29;20048;-78
2022/07/29 10:07:05;;;;;;;12.65;2.55;;;;;;;27.76;30.84;100399.44;10213967;29;20047;-77
2022/07/29 10:12:13;;;;;;;8.65;2.78;;;;;;;27.72;30.40;100411.19;10212650;28;20044;-78
2022/07/29 10:17:16;;;;;;;4.78;2.78;;;;;;;27.23;32.21;100404.91;10217114;29;20048;-78
2022/07/29 10:22:20;;;;;;;4.45;2.33;;;;;;;27.23;32.70;100399.41;10215659;29;20047;-78
2022/07/29 10:27:45;;;;;;;3.58;2.67;;;;;;;27.14;31.81;100394.22;10222251;29;20067;-79
2022/07/29 10:33:16;;;;;;;3.58;3.10;;;;;;;27.11;31.63;100382.81;10220206;29;20044;-80
2022/07/29 10:38:42;;;;;;;7.93;3.30;;;;;;;26.94;31.79;100379.88;10215610;29;20047;-80
2022/07/29 10:44:10;;;;;;;4.25;2.40;;;;;;;27.80;31.94;100378.56;10220755;29;20295;-80
2022/07/29 10:49:22;;;;;;;7.90;3.38;;;;;;;28.10;30.05;100385.09;10218511;29;20040;-80
2022/07/29 10:54:46;;;;;;;5.00;3.15;;;;;;;28.76;29.50;100380.19;10218466;29;20082;-79
2022/07/29 10:59:52;;;;;;;5.28;2.38;;;;;;;28.28;30.26;100382.19;10213758;29;20091;-79
2022/07/29 11:05:03;;;;;;;6.63;2.50;;;;;;;28.05;30.64;100381.13;10217452;29;20806;-81
2022/07/29 11:10:21;;;;;;;4.68;2.83;;;;;;;27.22;31.39;100382.00;10217744;29;20055;-81
2022/07/29 11:15:53;;;;;;;4.80;2.65;;;;;;;27.97;31.06;100386.16;10218283;29;20046;-81
2022/07/29 11:20:57;;;;;;;3.88;2.85;;;;;;;29.04;29.38;100384.88;10227952;29;20071;-81
2022/07/29 11:26:16;;;;;;;9.23;3.50;;;;;;;28.76;29.08;100378.25;10217924;29;20124;-79
2022/07/29 11:31:34;;;;;;;10.52;2.83;;;;;;;28.97;29.18;100373.16;10205577;29;20427;-79
2022/07/29 11:37:01;;;;;;;3.90;2.35;;;;;;;30.01;28.46;100381.09;10211536;29;20048;-79
2022/07/29 11:42:38;;;;;;;7.50;2.80;;;;;;;29.32;29.34;100378.56;10199927;29;20059;-79
2022/07/29 11:48:02;;;;;;;6.68;2.97;;;;;;;28.56;29.91;100389.75;10218862;29;20078;-78
2022/07/29 11:53:25;;;;;;;5.40;2.70;;;;;;;28.42;30.04;100380.03;10233286;29;20047;-79
2022/07/29 11:58:34;;;;;;;4.45;1.95;;;;;;;28.66;29.29;100386.34;10231087;29;20043;-80
2022/07/29 12:03:41;;;;;;;5.78;3.05;;;;;;;28.88;29.88;100379.06;10226783;29;20402;-80
2022/07/29 12:08:46;;;;;;;6.30;2.58;;;;;;;28.78;28.85;100376.09;10222018;29;20497;-79
2022/07/29 12:13:50;;;;;;;5.30;2.22;;;;;;;29.24;29.15;100379.78;10226811;29;20508;-79
2022/07/29 12:18:58;;;;;;;6.68;2.67;;;;;;;30.45;27.59;100370.94;10226201;29;20386;-80
2022/07/29 12:24:01;;;;;;;9.95;2.83;;;;;;;30.99;28.24;100374.94;10222536;29;20135;-79
2022/07/29 12:29:16;;;;;;;3.45;2.80;;;;;;;30.81;26.91;100388.03;10222928;29;20099;-80
2022/07/29 12:34:38;;;;;;;9.15;3.10;;;;;;;30.68;28.55;100366.25;10223027;29;20398;-80
2022/07/29 12:39:41;;;;;;;6.32;3.00;;;;;;;30.45;27.17;100365.41;10238522;29;20060;-79
2022/07/29 12:44:46;;;;;;;5.80;2.75;;;;;;;29.58;29.11;100366.81;10222252;29;20047;-79
2022/07/29 12:49:51;;;;;;;3.08;2.58;;;;;;;29.18;29.23;100366.09;10213614;29;20043;-80
2022/07/29 12:54:54;;;;;;;8.02;3.00;;;;;;;29.20;29.55;100361.16;10223694;29;20044;-80
2022/07/29 13:00:09;;;;;;;6.22;2.90;;;;;;;28.54;30.48;100361.50;10224192;29;20043;-80
2022/07/29 13:05:14;;;;;;;6.97;2.60;;;;;;;28.59;30.91;100361.63;10223355;29;20115;-80
2022/07/29 13:10:19;;;;;;;6.28;2.67;;;;;;;28.89;30.87;100352.28;10211809;29;20043;-80
2022/07/29 13:15:26;;;;;;;7.35;3.05;;;;;;;29.07;30.10;100351.25;10222967;29;20139;-80
2022/07/29 13:20:30;;;;;;;4.20;2.35;;;;;;;29.07;30.39;100349.34;10222682;29;20047;-80
2022/07/29 13:25:34;;;;;;;6.68;2.83;;;;;;;28.97;30.30;100348.28;10237667;29;20048;-80
2022/07/29 13:30:37;;;;;;;6.10;2.70;;;;;;;28.27;31.10;100344.59;10237519;29;20150;-79
2022/07/29 13:35:48;;;;;;;4.57;2.25;;;;;;;27.92;31.64;100339.94;10220911;29;20050;-80
2022/07/29 13:40:51;;;;;;;5.28;2.30;;;;;;;28.25;31.58;100336.56;10216182;29;20095;-80
2022/07/29 13:45:54;;;;;;;5.50;2.40;;;;;;;28.37;31.82;100338.47;10223191;29;20039;-80
2022/07/29 13:50:58;;;;;;;6.07;2.03;;;;;;;27.42;32.52;100343.13;10221999;29;20539;-80
2022/07/29 13:56:01;;;;;;;9.80;2.22;;;;;;;27.07;33.33;100341.09;10222702;29;20072;-79
2022/07/29 14:01:04;;;;;;;3.22;1.90;;;;;;;26.83;34.12;100336.59;10220759;29;20052;-79
2022/07/29 14:06:08;;;;;;;4.20;2.55;;;;;;;26.65;33.28;100343.75;10221965;29;20066;-79
2022/07/29 14:11:11;;;;;;;4.63;2.30;;;;;;;26.52;33.69;100343.91;10221841;29;20052;-79
2022/07/29 14:16:14;;;;;;;11.20;2.70;;;;;;;26.51;34.26;100348.59;10223194;29;20035;-79
2022/07/29 14:21:19;;;;;;;6.65;2.40;;;;;;;25.80;44.34;100340.88;10220145;29;20119;-79
2022/07/29 14:26:22;;;;;;;7.07;2.83;;;;;;;25.33;50.73;100330.25;10219427;29;20440;-79
2022/07/29 14:31:26;;;;;;;5.00;2.60;;;;;;;25.53;52.89;100341.06;10217114;29;20047;-79
2022/07/29 14:36:30;;;;;;;7.95;2.42;;;;;;;25.74;51.76;100326.13;10218201;29;20056;-79
2022/07/29 14:41:33;;;;;;;6.68;2.22;;;;;;;25.94;47.65;100325.91;10233786;29;20060;-79
2022/07/29 14:46:36;;;;;;;6.43;2.20;;;;;;;25.97;43.45;100327.38;10218107;29;20039;-79
2022/07/29 14:51:40;;;;;;;6.32;2.53;;;;;;;26.00;42.59;100337.91;10227474;29;20051;-79
2022/07/29 14:56:43;;;;;;;4.85;2.60;;;;;;;25.78;41.15;100341.13;10224450;29;20047;-79
2022/07/29 15:01:49;;;;;;;6.82;2.08;;;;;;;25.54;40.74;100328.19;10220591;29;20043;-80
2022/07/29 15:06:54;;;;;;;10.20;2.78;;;;;;;25.31;40.53;100334.28;10220226;29;20417;-79
2022/07/29 15:11:57;;;;;;;10.77;2.80;;;;;;;25.13;40.91;100338.63;10219113;29;20043;-79
2022/07/29 15:17:01;;;;;;;6.85;2.90;;;;;;;24.90;40.71;100343.81;10218398;29;20104;-79
2022/07/29 15:22:08;;;;;;;6.93;2.60;;;;;;;24.70;40.31;100342.00;10218925;29;20048;-79
2022/07/29 15:27:13;;;;;;;8.00;2.65;;;;;;;24.64;40.79;100342.91;10227368;29;20059;-79
2022/07/29 15:32:16;;;;;;;21.30;4.60;;;;;;;24.57;41.13;100341.22;10226974;29;20039;-81
2022/07/29 15:37:20;;;;;;;7.35;2.58;;;;;;;24.38;40.46;100343.81;10225974;29;20043;-79
2022/07/29 15:42:23;;;;;;;10.68;3.45;;;;;;;24.15;40.95;100341.56;10225515;29;20051;-79
2022/07/29 15:47:26;;;;;;;13.38;3.20;;;;;;;24.13;41.33;100324.47;10225051;29;20087;-79
2022/07/29 15:52:30;;;;;;;7.65;2.80;;;;;;;24.08;41.61;100329.78;10224750;29;20040;-79
2022/07/29 15:57:34;;;;;;;8.23;2.97;;;;;;;24.01;41.63;100327.03;10225230;29;20043;-79
2022/07/29 16:02:36;;;;;;;8.85;3.05;;;;;;;23.94;41.81;100328.09;10224655;29;20070;-80
2022/07/29 16:07:41;;;;;;;10.57;3.17;;;;;;;23.88;42.59;100327.03;10226488;29;20044;-79
2022/07/29 16:12:43;;;;;;;14.27;3.47;;;;;;;23.81;43.52;100323.50;10224589;29;20048;-79
2022/07/29 16:17:46;;;;;;;13.07;3.30;;;;;;;23.62;43.66;100326.00;10227697;29;20055;-79
2022/07/29 16:22:50;;;;;;;5.88;3.03;;;;;;;23.62;43.38;100333.38;10222842;29;20042;-79
2022/07/29 16:27:53;;;;;;;7.97;3.00;;;;;;;23.50;43.47;100332.31;10238877;29;20572;-79
2022/07/29 16:33:01;;;;;;;9.27;3.35;;;;;;;23.38;43.62;100335.69;10223444;29;20047;-79
2022/07/29 16:38:11;;;;;;;12.15;3.55;;;;;;;23.44;43.84;100323.88;10222230;29;20040;-78
2022/07/29 16:43:14;;;;;;;9.18;3.10;;;;;;;23.40;44.25;100338.25;10222795;29;20047;-80
2022/07/29 16:48:17;;;;;;;12.20;3.33;;;;;;;23.35;44.49;100338.84;10224958;29;20102;-80
2022/07/29 16:53:21;;;;;;;8.45;3.55;;;;;;;23.22;45.06;100336.09;10223966;29;20035;-80
2022/07/29 16:58:30;;;;;;;8.88;3.25;;;;;;;23.21;45.23;100338.00;10224565;29;20071;-79
2022/07/29 17:03:32;;;;;;;6.53;3.20;;;;;;;23.23;45.52;100339.69;10215260;29;20080;-80
2022/07/29 17:08:37;;;;;;;7.57;3.08;;;;;;;23.08;45.79;100343.41;10223073;29;20047;-79
2022/07/29 17:13:40;;;;;;;8.20;3.38;;;;;;;22.90;46.03;100338.56;10210133;29;20087;-79
2022/07/29 17:18:42;;;;;;;9.68;3.38;;;;;;;22.76;46.22;100340.41;10195460;29;20051;-79
2022/07/29 17:23:47;;;;;;;10.63;3.42;;;;;;;22.62;46.52;100343.28;10193994;29;20127;-80
2022/07/29 17:28:50;;;;;;;10.25;2.85;;;;;;;22.37;49.67;100330.09;10172465;28;21065;-79
2022/07/29 17:33:52;;;;;;;9.20;3.20;;;;;;;21.65;57.78;100336.78;10170391;28;20078;-78
2022/07/29 17:39:06;;;;;;;8.40;3.38;;;;;;;20.68;64.10;100349.03;10179319;29;21213;-79
2022/07/29 17:44:09;;;;;;;8.73;3.60;;;;;;;20.19;64.93;100343.31;10189008;29;20055;-79
2022/07/29 17:49:12;;;;;;;7.65;3.80;;;;;;;19.99;65.73;100341.13;10185707;29;20083;-79
2022/07/29 17:54:16;;;;;;;7.00;4.50;;;;;;;19.95;64.51;100342.56;10182395;29;20130;-79
2022/07/29 17:59:19;;;;;;;8.50;4.53;;;;;;;20.20;63.90;100334.94;10197746;29;20076;-79
2022/07/29 18:04:22;;;;;;;9.13;3.95;;;;;;;20.32;62.75;100335.31;10176149;29;21166;-79
2022/07/29 18:09:26;;;;;;;15.13;4.93;;;;;;;20.33;61.64;100337.03;10196840;29;20162;-80
2022/07/29 18:14:29;;;;;;;8.63;4.18;;;;;;;20.33;62.67;100340.59;10186408;29;20050;-79
2022/07/29 18:19:32;;;;;;;7.45;4.40;;;;;;;20.25;62.50;100357.03;10184188;29;20509;-80
2022/07/29 18:24:37;;;;;;;8.77;4.65;;;;;;;19.88;60.08;100377.91;10188550;29;20104;-80
2022/07/29 18:29:40;;;;;;;9.63;5.25;;;;;;;19.64;61.37;100391.75;10189694;29;20052;-80
2022/07/29 18:34:43;;;;;;;9.80;4.85;;;;;;;19.69;62.78;100397.47;10186875;29;21238;-79
2022/07/29 18:39:48;;;;;;;8.27;4.57;;;;;;;19.04;68.75;100412.41;10182839;29;20055;-79
2022/07/29 18:44:51;;;;;;;9.65;5.70;;;;;;;18.54;68.60;100435.38;10196214;29;20877;-79
2022/07/29 18:49:54;;;;;;;9.90;5.90;;;;;;;18.16;70.17;100458.78;10179558;29;20115;-80
2022/07/29 18:54:59;;;;;;;7.22;5.07;;;;;;;18.18;71.81;100452.13;10176975;28;20067;-80
2022/07/29 19:00:02;;;;;;;10.57;6.32;;;;;;;18.42;73.34;100455.81;10185962;29;20154;-79
2022/07/29 19:05:06;;;;;;;10.40;6.15;;;;;;;18.42;75.00;100462.09;10182346;29;20087;-80
2022/07/29 19:10:11;;;;;;;7.25;6.28;;;;;;;18.61;77.24;100460.00;10183397;28;20068;-80
2022/07/29 19:15:13;;;;;;;12.77;6.85;;;;;;;18.52;79.16;100464.63;10183115;28;20054;-80
2022/07/29 19:20:22;;;;;;;11.70;7.28;;;;;;;;;;10184927;28;20095;-79
2022/07/29 19:25:26;;;;;;;10.48;7.60;;;;;;;17.97;82.37;100457.22;10207728;28;20789;-79
2022/07/29 19:30:29;;;;;;;12.43;7.05;;;;;;;17.90;83.48;100446.19;10190922;28;20521;-80
2022/07/29 19:35:32;;;;;;;11.63;7.55;;;;;;;17.70;83.61;100461.97;10187812;28;20048;-80
2022/07/29 19:40:37;;;;;;;16.10;10.70;;;;;;;17.48;85.48;100452.63;10189294;29;20058;-80
2022/07/29 19:45:40;;;;;;;15.90;9.30;;;;;;;17.33;84.57;100451.56;10209692;29;20305;-80
2022/07/29 19:56:25;;;;;;;11.38;8.02;;;;;;;17.14;84.54;100455.44;10438314;23;20079;-80
2022/07/29 20:01:28;;;;;;;12.45;7.57;;;;;;;17.21;84.66;100470.03;10230298;28;20566;-81
2022/07/29 20:06:31;;;;;;;9.10;7.78;;;;;;;17.29;85.26;100461.91;10220453;29;20146;-80
2022/07/29 20:11:35;;;;;;;12.18;7.93;;;;;;;17.50;85.79;100475.03;10200750;29;20512;-79
2022/07/29 20:16:38;;;;;;;10.48;9.00;;;;;;;17.43;85.02;100482.13;10204938;29;20812;-79
2022/07/29 20:21:41;;;;;;;15.18;9.63;;;;;;;17.03;83.84;100491.81;10202349;28;20332;-79
2022/07/29 20:26:46;;;;;;;10.10;9.07;;;;;;;16.80;84.27;100505.13;10198051;29;20082;-78
2022/07/29 20:31:49;;;;;;;14.65;9.35;;;;;;;16.72;84.05;100505.94;10197989;28;20067;-79
2022/07/29 20:36:58;;;;;;;14.65;8.73;;;;;;;17.02;85.38;100523.53;10191998;28;20051;-79
2022/07/29 20:42:04;;;;;;;13.60;8.63;;;;;;;17.19;85.01;100508.19;10199114;29;20056;-79
2022/07/29 20:47:07;;;;;;;13.63;9.82;;;;;;;17.21;83.47;100521.63;10191684;28;20048;-79
2022/07/29 20:52:10;;;;;;;8.57;7.57;;;;;;;17.06;84.33;100525.91;10198240;28;20071;-80
2022/07/29 20:57:14;;;;;;;14.10;9.38;;;;;;;17.15;84.34;100533.97;10195476;28;20060;-79
2022/07/29 21:02:17;;;;;;;10.10;8.55;;;;;;;17.24;83.74;100534.84;10211084;29;20067;-79
2022/07/29 21:07:20;;;;;;;18.95;9.48;;;;;;;17.44;84.71;100532.69;10208243;29;20753;-80
2022/07/29 21:12:24;;;;;;;13.18;9.20;;;;;;;17.16;81.97;100538.38;10208596;29;20067;-79
2022/07/29 21:17:27;;;;;;;11.48;8.40;;;;;;;17.27;82.60;100534.53;10206813;29;20702;-80
2022/07/29 21:22:30;;;;;;;11.98;9.45;;;;;;;17.35;83.12;100531.84;10195009;29;20066;-80
2022/07/29 21:32:54;;;;;;;12.40;8.50;;;;;;;17.53;83.88;100523.59;10193088;28;20083;-79
2022/07/29 21:37:57;;;;;;;12.25;8.60;;;;;;;17.55;83.64;100524.28;10198162;28;20040;-80
2022/07/29 21:43:01;;;;;;;11.75;8.13;;;;;;;17.55;83.65;100512.53;10203978;28;20398;-79
2022/07/29 21:48:05;;;;;;;9.98;7.82;;;;;;;17.56;82.48;100516.97;10203128;28;20079;-79
2022/07/29 21:53:08;;;;;;;12.88;8.75;;;;;;;17.47;83.22;100511.53;10203103;29;20055;-79
2022/07/29 21:58:18;;;;;;;11.25;9.05;;;;;;;17.41;83.40;100511.31;10200042;29;20062;-79
2022/07/29 22:03:21;;;;;;;13.07;9.85;;;;;;;17.44;83.60;100511.84;10192438;28;20047;-79
2022/07/29 22:08:24;;;;;;;9.95;8.95;;;;;;;17.41;82.78;100527.59;10213607;29;20051;-80
2022/07/29 22:13:28;;;;;;;17.67;10.20;;;;;;;17.35;83.65;100528.28;10198970;29;20047;-79
2022/07/29 22:18:31;;;;;;;12.32;9.35;;;;;;;17.37;83.89;100518.09;10205196;29;20055;-80
2022/07/29 22:23:34;;;;;;;10.80;9.35;;;;;;;17.28;83.34;100521.78;10203418;29;20047;-80
2022/07/29 22:28:38;;;;;;;12.32;10.23;;;;;;;17.07;81.32;100512.22;10203099;29;20052;-79
2022/07/29 22:33:42;;;;;;;17.48;10.35;;;;;;;16.79;81.80;100517.00;10203071;29;20063;-80
2022/07/29 22:38:45;;;;;;;13.02;10.82;;;;;;;16.88;82.03;100516.03;10202706;29;20670;-79
2022/07/29 22:43:54;;;;;;;12.63;10.52;;;;;;;17.07;82.98;100516.78;10202424;29;20135;-79
2022/07/29 22:48:58;;;;;;;16.63;11.50;;;;;;;17.10;82.07;100519.19;10194523;29;21096;-80
2022/07/29 22:54:01;;;;;;;16.23;10.95;;;;;;;17.04;82.28;100523.38;10200839;29;20126;-79
2022/07/29 22:59:05;;;;;;;15.63;11.57;;;;;;;16.96;82.62;100513.34;10202680;29;20079;-80
2022/07/29 23:04:08;;;;;;;13.60;12.20;;;;;;;16.99;82.79;100507.59;10201076;29;20425;-80
2022/07/29 23:09:11;;;;;;;18.75;13.48;;;;;;;17.18;83.14;100517.38;10201017;29;20107;-79
2022/07/29 23:14:15;;;;;;;17.73;13.75;;;;;;;17.25;82.87;100512.13;10200727;29;20060;-80
2022/07/29 23:19:18;;;;;;;14.80;11.20;;;;;;;17.06;81.94;100509.63;10205222;29;20079;-79
2022/07/29 23:24:21;;;;;;;14.82;13.30;;;;;;;17.03;82.45;100508.09;10206187;29;20051;-79
2022/07/29 23:29:25;;;;;;;19.27;13.80;;;;;;;16.76;82.23;100503.78;10203398;29;21366;-80
2022/07/29 23:34:28;;;;;;;16.02;12.18;;;;;;;16.77;83.06;100498.16;10192104;29;20052;-79
2022/07/29 23:39:31;;;;;;;14.48;12.48;;;;;;;16.95;81.80;100495.38;10195184;29;20837;-79
2022/07/29 23:44:35;;;;;;;14.60;12.02;;;;;;;16.93;82.18;100491.97;10200917;29;21257;-79
2022/07/29 23:49:38;;;;;;;14.60;11.73;;;;;;;17.17;83.02;100493.13;10206545;29;20153;-79